Coldwater, Kentucky
Current Conditions -  °F | °C
As of 8:15 AM on Wednesday 26 Nov 2014 (Local Time) from KCEY Reporting Station
Clear Clear  
Wind Chill: 27°   Ceiling: Unl
Heat Index: 32°   Visibility: 9mi
Dew Point: 28°   Wind: 5mph
Humidity: 87%   Direction: 160°SSE
Pressure: 30.14"   Gusts: NA
Location:  36.618°N, 88.2562°W
Report Text: KCEY 261415Z AUTO 16004KT 9SM CLR 00/M02 A3014 RMK AO1
Loading
Personal Weather Stations






























Interactive Weather Map New forecast layout! Learn more

10-Day Weather Forecast

Advertisements
Track Severe Weather on mobile